Republic, Ohio
Current Conditions -  °F | °C
As of 7:53 PM on Saturday 25 Oct 2014 (Local Time) from KPCW Reporting Station
Clear Clear  
Wind Chill: 64°   Ceiling: Unl
Heat Index: 64°   Visibility: 10mi
Dew Point: 40°   Wind: 14mph
Humidity: 41%   Direction: 280°W
Pressure: 29.79"   Gusts: NA
Location:  41.12°N, 83.02°W
Report Text: KPCW 252353Z AUTO 28012KT 10SM CLR 18/04 A2979 RMK AO2 53012 T01770044 $
Loading
Personal Weather Stations






























Interactive Weather Map
Tropical Storm Tracking
New forecast layout! Learn more

10-Day Weather Forecast

Advertisements
Track Severe Weather on mobile